sensor_id;sensor_type;location;lat;lon;timestamp;temperature;humidity
19880;DHT22;10102;50.828;4.416;2023-09-18T00:00:55;22.40;99.90
19880;DHT22;10102;50.828;4.416;2023-09-18T00:03:23;22.30;99.90
19880;DHT22;10102;50.828;4.416;2023-09-18T00:05:52;22.30;99.90
19880;DHT22;10102;50.828;4.416;2023-09-18T00:08:19;22.30;99.90
19880;DHT22;10102;50.828;4.416;2023-09-18T00:10:53;22.30;99.90
19880;DHT22;10102;50.828;4.416;2023-09-18T00:13:19;22.50;99.90
19880;DHT22;10102;50.828;4.416;2023-09-18T00:15:45;22.60;99.90
19880;DHT22;10102;50.828;4.416;2023-09-18T00:18:15;22.60;99.90
19880;DHT22;10102;50.828;4.416;2023-09-18T00:20:42;22.50;99.90
19880;DHT22;10102;50.828;4.416;2023-09-18T00:23:08;22.70;99.90
19880;DHT22;10102;50.828;4.416;2023-09-18T00:25:34;22.50;99.90
19880;DHT22;10102;50.828;4.416;2023-09-18T00:28:00;22.20;99.90
19880;DHT22;10102;50.828;4.416;2023-09-18T00:30:26;22.30;99.90
19880;DHT22;10102;50.828;4.416;2023-09-18T00:32:52;22.20;99.90
19880;DHT22;10102;50.828;4.416;2023-09-18T00:35:18;22.20;99.90
19880;DHT22;10102;50.828;4.416;2023-09-18T00:37:44;22.40;99.90
19880;DHT22;10102;50.828;4.416;2023-09-18T00:40:10;22.30;99.90
19880;DHT22;10102;50.828;4.416;2023-09-18T00:42:36;22.50;99.90
19880;DHT22;10102;50.828;4.416;2023-09-18T00:45:03;22.40;99.90
19880;DHT22;10102;50.828;4.416;2023-09-18T00:47:29;22.40;99.90
19880;DHT22;10102;50.828;4.416;2023-09-18T00:49:55;22.30;99.90
19880;DHT22;10102;50.828;4.416;2023-09-18T00:52:22;22.20;99.90
19880;DHT22;10102;50.828;4.416;2023-09-18T00:54:49;22.00;99.90
19880;DHT22;10102;50.828;4.416;2023-09-18T00:57:15;21.80;99.90
19880;DHT22;10102;50.828;4.416;2023-09-18T00:59:41;21.60;99.90
19880;DHT22;10102;50.828;4.416;2023-09-18T01:02:07;21.50;99.90
19880;DHT22;10102;50.828;4.416;2023-09-18T01:04:34;21.60;99.90
19880;DHT22;10102;50.828;4.416;2023-09-18T01:07:01;21.40;99.90
19880;DHT22;10102;50.828;4.416;2023-09-18T01:09:31;21.50;99.90
19880;DHT22;10102;50.828;4.416;2023-09-18T01:12:22;21.40;99.90
19880;DHT22;10102;50.828;4.416;2023-09-18T01:15:17;21.50;99.90
19880;DHT22;10102;50.828;4.416;2023-09-18T01:17:45;21.50;99.90
19880;DHT22;10102;50.828;4.416;2023-09-18T01:20:12;21.40;99.90
19880;DHT22;10102;50.828;4.416;2023-09-18T01:22:38;21.50;99.90
19880;DHT22;10102;50.828;4.416;2023-09-18T01:25:04;21.30;99.90
19880;DHT22;10102;50.828;4.416;2023-09-18T01:27:32;21.50;99.90
19880;DHT22;10102;50.828;4.416;2023-09-18T01:29:58;21.50;99.90
19880;DHT22;10102;50.828;4.416;2023-09-18T01:32:26;21.30;99.90
19880;DHT22;10102;50.828;4.416;2023-09-18T01:34:55;21.50;99.90
19880;DHT22;10102;50.828;4.416;2023-09-18T01:37:27;21.50;99.90
19880;DHT22;10102;50.828;4.416;2023-09-18T01:39:54;21.60;99.90
19880;DHT22;10102;50.828;4.416;2023-09-18T01:42:25;21.50;99.90
19880;DHT22;10102;50.828;4.416;2023-09-18T01:44:53;21.50;99.90
19880;DHT22;10102;50.828;4.416;2023-09-18T01:47:21;21.50;99.90
19880;DHT22;10102;50.828;4.416;2023-09-18T01:49:49;21.40;99.90
19880;DHT22;10102;50.828;4.416;2023-09-18T01:52:15;21.60;99.90
19880;DHT22;10102;50.828;4.416;2023-09-18T01:54:41;21.60;99.90
19880;DHT22;10102;50.828;4.416;2023-09-18T01:57:08;21.80;99.90
19880;DHT22;10102;50.828;4.416;2023-09-18T01:59:34;21.80;99.90
19880;DHT22;10102;50.828;4.416;2023-09-18T02:02:00;21.90;99.90
19880;DHT22;10102;50.828;4.416;2023-09-18T02:04:29;21.80;99.90
19880;DHT22;10102;50.828;4.416;2023-09-18T02:06:56;21.70;99.90
19880;DHT22;10102;50.828;4.416;2023-09-18T02:09:22;21.80;99.90
19880;DHT22;10102;50.828;4.416;2023-09-18T02:11:48;21.90;99.90
19880;DHT22;10102;50.828;4.416;2023-09-18T02:14:14;21.90;99.90
19880;DHT22;10102;50.828;4.416;2023-09-18T02:16:41;22.10;99.90
19880;DHT22;10102;50.828;4.416;2023-09-18T02:19:09;21.90;99.90
19880;DHT22;10102;50.828;4.416;2023-09-18T02:21:36;22.00;99.90
19880;DHT22;10102;50.828;4.416;2023-09-18T02:24:03;21.80;99.90
19880;DHT22;10102;50.828;4.416;2023-09-18T02:26:29;21.80;99.90
19880;DHT22;10102;50.828;4.416;2023-09-18T02:28:57;21.80;99.90
19880;DHT22;10102;50.828;4.416;2023-09-18T02:31:23;21.80;99.90
19880;DHT22;10102;50.828;4.416;2023-09-18T02:33:49;21.70;99.90
19880;DHT22;10102;50.828;4.416;2023-09-18T02:36:15;21.70;99.90
19880;DHT22;10102;50.828;4.416;2023-09-18T02:38:42;21.80;99.90
19880;DHT22;10102;50.828;4.416;2023-09-18T02:41:08;21.70;99.90
19880;DHT22;10102;50.828;4.416;2023-09-18T02:43:34;21.70;99.90
19880;DHT22;10102;50.828;4.416;2023-09-18T02:46:00;21.60;99.90
19880;DHT22;10102;50.828;4.416;2023-09-18T02:48:26;21.60;99.90
19880;DHT22;10102;50.828;4.416;2023-09-18T02:50:51;21.70;99.90
19880;DHT22;10102;50.828;4.416;2023-09-18T02:53:20;21.60;99.90
19880;DHT22;10102;50.828;4.416;2023-09-18T02:55:48;21.70;99.90
19880;DHT22;10102;50.828;4.416;2023-09-18T02:58:14;21.70;99.90
19880;DHT22;10102;50.828;4.416;2023-09-18T03:00:43;21.80;99.90
19880;DHT22;10102;50.828;4.416;2023-09-18T03:03:10;21.70;99.90
19880;DHT22;10102;50.828;4.416;2023-09-18T03:05:37;21.70;99.90
19880;DHT22;10102;50.828;4.416;2023-09-18T03:08:03;21.60;99.90
19880;DHT22;10102;50.828;4.416;2023-09-18T03:10:33;21.60;99.90
19880;DHT22;10102;50.828;4.416;2023-09-18T03:13:03;21.60;99.90
19880;DHT22;10102;50.828;4.416;2023-09-18T03:15:29;21.50;99.90
19880;DHT22;10102;50.828;4.416;2023-09-18T03:17:57;21.40;99.90
19880;DHT22;10102;50.828;4.416;2023-09-18T03:20:27;21.60;99.90
19880;DHT22;10102;50.828;4.416;2023-09-18T03:23:00;21.60;99.90
19880;DHT22;10102;50.828;4.416;2023-09-18T03:25:26;22.10;99.90
19880;DHT22;10102;50.828;4.416;2023-09-18T03:27:53;21.60;99.90
19880;DHT22;10102;50.828;4.416;2023-09-18T03:30:20;21.60;99.90
19880;DHT22;10102;50.828;4.416;2023-09-18T03:32:47;21.60;99.90
19880;DHT22;10102;50.828;4.416;2023-09-18T03:35:14;21.60;99.90
19880;DHT22;10102;50.828;4.416;2023-09-18T03:40:12;21.60;99.90
19880;DHT22;10102;50.828;4.416;2023-09-18T03:42:38;21.60;99.90
19880;DHT22;10102;50.828;4.416;2023-09-18T03:45:06;21.70;99.90
19880;DHT22;10102;50.828;4.416;2023-09-18T03:47:33;21.60;99.90
19880;DHT22;10102;50.828;4.416;2023-09-18T03:50:02;21.50;99.90
19880;DHT22;10102;50.828;4.416;2023-09-18T03:52:27;21.20;99.90
19880;DHT22;10102;50.828;4.416;2023-09-18T03:54:53;21.20;99.90
19880;DHT22;10102;50.828;4.416;2023-09-18T03:57:19;21.10;99.90
19880;DHT22;10102;50.828;4.416;2023-09-18T03:59:45;21.00;99.90
19880;DHT22;10102;50.828;4.416;2023-09-18T04:02:11;20.90;99.90
19880;DHT22;10102;50.828;4.416;2023-09-18T04:04:37;21.10;99.90
19880;DHT22;10102;50.828;4.416;2023-09-18T04:07:06;20.90;99.90
19880;DHT22;10102;50.828;4.416;2023-09-18T04:09:32;20.90;99.90
19880;DHT22;10102;50.828;4.416;2023-09-18T04:12:01;20.90;99.90
19880;DHT22;10102;50.828;4.416;2023-09-18T04:14:26;20.70;99.90
19880;DHT22;10102;50.828;4.416;2023-09-18T04:16:52;20.80;99.90
19880;DHT22;10102;50.828;4.416;2023-09-18T04:19:18;20.70;99.90
19880;DHT22;10102;50.828;4.416;2023-09-18T04:21:45;20.70;99.90
19880;DHT22;10102;50.828;4.416;2023-09-18T04:24:11;20.80;99.90
19880;DHT22;10102;50.828;4.416;2023-09-18T04:26:37;20.80;99.90
19880;DHT22;10102;50.828;4.416;2023-09-18T04:29:03;20.60;99.90
19880;DHT22;10102;50.828;4.416;2023-09-18T04:31:29;20.60;99.90
19880;DHT22;10102;50.828;4.416;2023-09-18T04:33:55;20.70;99.90
19880;DHT22;10102;50.828;4.416;2023-09-18T04:36:21;20.70;99.90
19880;DHT22;10102;50.828;4.416;2023-09-18T04:38:47;20.60;99.90
19880;DHT22;10102;50.828;4.416;2023-09-18T04:41:14;20.60;99.90
19880;DHT22;10102;50.828;4.416;2023-09-18T04:43:40;20.30;99.90
19880;DHT22;10102;50.828;4.416;2023-09-18T04:46:08;20.40;99.90
19880;DHT22;10102;50.828;4.416;2023-09-18T04:48:34;20.40;99.90
19880;DHT22;10102;50.828;4.416;2023-09-18T04:51:01;20.40;99.90
19880;DHT22;10102;50.828;4.416;2023-09-18T04:53:29;20.40;99.90
19880;DHT22;10102;50.828;4.416;2023-09-18T04:55:57;20.50;99.90
19880;DHT22;10102;50.828;4.416;2023-09-18T04:58:23;20.50;99.90
19880;DHT22;10102;50.828;4.416;2023-09-18T05:00:56;20.30;99.90
19880;DHT22;10102;50.828;4.416;2023-09-18T05:03:23;20.40;99.90
19880;DHT22;10102;50.828;4.416;2023-09-18T05:05:49;20.60;99.90
19880;DHT22;10102;50.828;4.416;2023-09-18T05:08:16;20.50;99.90
19880;DHT22;10102;50.828;4.416;2023-09-18T05:13:10;20.30;99.90
19880;DHT22;10102;50.828;4.416;2023-09-18T05:15:36;20.20;99.90
19880;DHT22;10102;50.828;4.416;2023-09-18T05:18:03;20.20;99.90
19880;DHT22;10102;50.828;4.416;2023-09-18T05:20:30;20.20;99.90
19880;DHT22;10102;50.828;4.416;2023-09-18T05:22:58;20.40;99.90
19880;DHT22;10102;50.828;4.416;2023-09-18T05:25:25;20.20;99.90
19880;DHT22;10102;50.828;4.416;2023-09-18T05:27:53;20.00;99.90
19880;DHT22;10102;50.828;4.416;2023-09-18T05:30:34;20.20;99.90
19880;DHT22;10102;50.828;4.416;2023-09-18T05:33:02;20.20;99.90
19880;DHT22;10102;50.828;4.416;2023-09-18T05:35:32;20.00;99.90
19880;DHT22;10102;50.828;4.416;2023-09-18T05:37:58;20.00;99.90
19880;DHT22;10102;50.828;4.416;2023-09-18T05:40:25;19.80;99.90
19880;DHT22;10102;50.828;4.416;2023-09-18T05:42:54;19.90;99.90
19880;DHT22;10102;50.828;4.416;2023-09-18T05:45:20;19.80;99.90
19880;DHT22;10102;50.828;4.416;2023-09-18T05:47:47;19.80;99.90
19880;DHT22;10102;50.828;4.416;2023-09-18T05:50:14;19.80;99.90
19880;DHT22;10102;50.828;4.416;2023-09-18T05:52:41;19.90;99.90
19880;DHT22;10102;50.828;4.416;2023-09-18T05:55:08;19.90;99.90
19880;DHT22;10102;50.828;4.416;2023-09-18T05:57:34;19.90;99.90
19880;DHT22;10102;50.828;4.416;2023-09-18T06:00:01;19.60;99.90
19880;DHT22;10102;50.828;4.416;2023-09-18T06:02:27;19.60;99.90
19880;DHT22;10102;50.828;4.416;2023-09-18T06:05:00;19.80;99.90
19880;DHT22;10102;50.828;4.416;2023-09-18T06:07:27;19.80;99.90
19880;DHT22;10102;50.828;4.416;2023-09-18T06:09:53;20.10;99.90
19880;DHT22;10102;50.828;4.416;2023-09-18T06:12:20;19.80;99.90
19880;DHT22;10102;50.828;4.416;2023-09-18T06:14:47;19.70;99.90
19880;DHT22;10102;50.828;4.416;2023-09-18T06:17:14;19.80;99.90
19880;DHT22;10102;50.828;4.416;2023-09-18T06:19:44;19.90;99.90
19880;DHT22;10102;50.828;4.416;2023-09-18T06:22:10;19.70;99.90
19880;DHT22;10102;50.828;4.416;2023-09-18T06:24:36;19.70;99.90
19880;DHT22;10102;50.828;4.416;2023-09-18T06:27:03;19.80;99.90
19880;DHT22;10102;50.828;4.416;2023-09-18T06:29:35;19.80;99.90
19880;DHT22;10102;50.828;4.416;2023-09-18T06:32:04;19.90;99.90
19880;DHT22;10102;50.828;4.416;2023-09-18T06:34:31;19.90;99.90
19880;DHT22;10102;50.828;4.416;2023-09-18T06:36:57;20.00;99.90
19880;DHT22;10102;50.828;4.416;2023-09-18T06:39:23;20.00;99.90
19880;DHT22;10102;50.828;4.416;2023-09-18T06:41:49;20.10;99.90
19880;DHT22;10102;50.828;4.416;2023-09-18T06:44:15;20.00;99.90
19880;DHT22;10102;50.828;4.416;2023-09-18T06:46:41;19.80;99.90
19880;DHT22;10102;50.828;4.416;2023-09-18T06:49:07;19.90;99.90
19880;DHT22;10102;50.828;4.416;2023-09-18T06:51:33;20.00;99.90
19880;DHT22;10102;50.828;4.416;2023-09-18T06:53:59;20.00;99.90
19880;DHT22;10102;50.828;4.416;2023-09-18T06:56:28;20.00;99.90
19880;DHT22;10102;50.828;4.416;2023-09-18T06:58:54;20.00;99.90
19880;DHT22;10102;50.828;4.416;2023-09-18T07:01:21;19.90;99.90
19880;DHT22;10102;50.828;4.416;2023-09-18T07:03:47;19.90;99.90
19880;DHT22;10102;50.828;4.416;2023-09-18T07:06:16;19.80;99.90
19880;DHT22;10102;50.828;4.416;2023-09-18T07:08:44;19.60;99.90
19880;DHT22;10102;50.828;4.416;2023-09-18T07:11:10;19.70;99.90
19880;DHT22;10102;50.828;4.416;2023-09-18T07:13:38;19.80;99.90
19880;DHT22;10102;50.828;4.416;2023-09-18T07:16:04;19.70;99.90
19880;DHT22;10102;50.828;4.416;2023-09-18T07:18:30;19.70;99.90
19880;DHT22;10102;50.828;4.416;2023-09-18T07:20:55;20.00;99.90
19880;DHT22;10102;50.828;4.416;2023-09-18T07:23:21;19.80;99.90
19880;DHT22;10102;50.828;4.416;2023-09-18T07:25:50;19.90;99.90
19880;DHT22;10102;50.828;4.416;2023-09-18T07:28:16;19.90;99.90
19880;DHT22;10102;50.828;4.416;2023-09-18T07:30:46;19.90;99.90
19880;DHT22;10102;50.828;4.416;2023-09-18T07:33:13;20.00;99.90
19880;DHT22;10102;50.828;4.416;2023-09-18T07:35:46;19.90;99.90
19880;DHT22;10102;50.828;4.416;2023-09-18T07:38:13;20.00;99.90
19880;DHT22;10102;50.828;4.416;2023-09-18T07:40:39;20.00;99.90
19880;DHT22;10102;50.828;4.416;2023-09-18T07:43:05;20.20;99.90
19880;DHT22;10102;50.828;4.416;2023-09-18T07:45:31;20.40;99.90
19880;DHT22;10102;50.828;4.416;2023-09-18T07:47:57;17.50;99.90
19880;DHT22;10102;50.828;4.416;2023-09-18T07:50:23;20.30;99.90
19880;DHT22;10102;50.828;4.416;2023-09-18T07:52:48;20.40;99.90
19880;DHT22;10102;50.828;4.416;2023-09-18T07:55:14;20.40;99.90
19880;DHT22;10102;50.828;4.416;2023-09-18T07:57:41;20.50;99.90
19880;DHT22;10102;50.828;4.416;2023-09-18T08:00:07;20.40;99.90
19880;DHT22;10102;50.828;4.416;2023-09-18T08:02:39;20.40;99.90
19880;DHT22;10102;50.828;4.416;2023-09-18T08:05:05;20.60;99.90
19880;DHT22;10102;50.828;4.416;2023-09-18T08:07:31;20.90;99.90
19880;DHT22;10102;50.828;4.416;2023-09-18T08:09:57;20.90;99.90
19880;DHT22;10102;50.828;4.416;2023-09-18T08:12:24;20.90;99.90
19880;DHT22;10102;50.828;4.416;2023-09-18T08:14:49;21.40;99.90
19880;DHT22;10102;50.828;4.416;2023-09-18T08:17:16;21.30;99.90
19880;DHT22;10102;50.828;4.416;2023-09-18T08:19:42;21.40;99.90
19880;DHT22;10102;50.828;4.416;2023-09-18T08:22:09;21.50;99.90
19880;DHT22;10102;50.828;4.416;2023-09-18T08:24:40;21.50;99.90
19880;DHT22;10102;50.828;4.416;2023-09-18T08:27:07;21.60;99.90
19880;DHT22;10102;50.828;4.416;2023-09-18T08:29:32;21.70;99.90
19880;DHT22;10102;50.828;4.416;2023-09-18T08:31:58;22.10;99.90
19880;DHT22;10102;50.828;4.416;2023-09-18T08:34:24;22.00;99.90
19880;DHT22;10102;50.828;4.416;2023-09-18T08:36:50;21.60;99.90
19880;DHT22;10102;50.828;4.416;2023-09-18T08:39:16;21.70;99.90
19880;DHT22;10102;50.828;4.416;2023-09-18T08:41:43;21.50;99.90
19880;DHT22;10102;50.828;4.416;2023-09-18T08:44:09;21.50;99.90
19880;DHT22;10102;50.828;4.416;2023-09-18T08:46:37;21.40;99.90
19880;DHT22;10102;50.828;4.416;2023-09-18T08:49:04;21.50;99.90
19880;DHT22;10102;50.828;4.416;2023-09-18T08:51:30;21.50;99.90
19880;DHT22;10102;50.828;4.416;2023-09-18T08:53:58;21.60;99.90
19880;DHT22;10102;50.828;4.416;2023-09-18T08:56:24;21.70;99.90
19880;DHT22;10102;50.828;4.416;2023-09-18T08:58:50;21.60;99.90
19880;DHT22;10102;50.828;4.416;2023-09-18T09:01:16;21.40;99.90
19880;DHT22;10102;50.828;4.416;2023-09-18T09:03:43;21.80;99.90
19880;DHT22;10102;50.828;4.416;2023-09-18T09:06:11;21.80;99.90
19880;DHT22;10102;50.828;4.416;2023-09-18T09:08:37;21.70;99.90
19880;DHT22;10102;50.828;4.416;2023-09-18T09:11:04;21.90;99.90
19880;DHT22;10102;50.828;4.416;2023-09-18T09:13:30;21.90;99.90
19880;DHT22;10102;50.828;4.416;2023-09-18T09:15:57;21.90;99.90
19880;DHT22;10102;50.828;4.416;2023-09-18T09:18:25;21.80;99.90
19880;DHT22;10102;50.828;4.416;2023-09-18T09:20:59;21.80;99.90
19880;DHT22;10102;50.828;4.416;2023-09-18T09:23:44;21.50;99.90
19880;DHT22;10102;50.828;4.416;2023-09-18T09:26:16;21.50;99.90
19880;DHT22;10102;50.828;4.416;2023-09-18T09:28:43;21.50;99.90
19880;DHT22;10102;50.828;4.416;2023-09-18T09:31:09;21.60;99.90
19880;DHT22;10102;50.828;4.416;2023-09-18T09:33:50;21.30;99.90
19880;DHT22;10102;50.828;4.416;2023-09-18T09:36:22;21.50;99.90
19880;DHT22;10102;50.828;4.416;2023-09-18T09:38:57;21.70;99.90
19880;DHT22;10102;50.828;4.416;2023-09-18T09:41:27;22.30;99.90
19880;DHT22;10102;50.828;4.416;2023-09-18T09:43:53;22.40;99.90
19880;DHT22;10102;50.828;4.416;2023-09-18T09:46:21;22.30;99.90
19880;DHT22;10102;50.828;4.416;2023-09-18T09:49:00;22.10;99.90
19880;DHT22;10102;50.828;4.416;2023-09-18T09:51:27;22.10;99.90
19880;DHT22;10102;50.828;4.416;2023-09-18T09:56:20;22.20;99.90
19880;DHT22;10102;50.828;4.416;2023-09-18T09:59:03;22.00;99.90
19880;DHT22;10102;50.828;4.416;2023-09-18T10:01:35;22.20;99.90
19880;DHT22;10102;50.828;4.416;2023-09-18T10:04:14;22.20;99.90
19880;DHT22;10102;50.828;4.416;2023-09-18T10:06:52;22.00;99.90
19880;DHT22;10102;50.828;4.416;2023-09-18T10:09:21;21.90;99.90
19880;DHT22;10102;50.828;4.416;2023-09-18T10:11:52;21.70;99.90
19880;DHT22;10102;50.828;4.416;2023-09-18T10:14:23;21.90;99.90
19880;DHT22;10102;50.828;4.416;2023-09-18T10:16:57;22.00;99.90
19880;DHT22;10102;50.828;4.416;2023-09-18T10:22:30;21.80;99.90
19880;DHT22;10102;50.828;4.416;2023-09-18T10:25:14;21.80;99.90
19880;DHT22;10102;50.828;4.416;2023-09-18T10:27:47;21.70;99.90
19880;DHT22;10102;50.828;4.416;2023-09-18T10:30:22;21.60;99.90
19880;DHT22;10102;50.828;4.416;2023-09-18T10:32:50;21.70;99.90
19880;DHT22;10102;50.828;4.416;2023-09-18T10:35:15;21.70;99.90
19880;DHT22;10102;50.828;4.416;2023-09-18T10:37:42;21.70;99.90
19880;DHT22;10102;50.828;4.416;2023-09-18T10:40:12;21.60;99.90
19880;DHT22;10102;50.828;4.416;2023-09-18T10:42:39;21.50;99.90
19880;DHT22;10102;50.828;4.416;2023-09-18T10:45:07;21.60;99.90
19880;DHT22;10102;50.828;4.416;2023-09-18T10:47:40;21.60;99.90
19880;DHT22;10102;50.828;4.416;2023-09-18T10:50:08;21.90;99.90
19880;DHT22;10102;50.828;4.416;2023-09-18T10:52:36;23.20;99.90
19880;DHT22;10102;50.828;4.416;2023-09-18T10:55:04;24.80;99.90
19880;DHT22;10102;50.828;4.416;2023-09-18T10:57:36;25.60;99.90
19880;DHT22;10102;50.828;4.416;2023-09-18T11:00:04;25.50;99.90
19880;DHT22;10102;50.828;4.416;2023-09-18T11:02:40;26.60;99.90
19880;DHT22;10102;50.828;4.416;2023-09-18T11:05:06;27.80;99.90
19880;DHT22;10102;50.828;4.416;2023-09-18T11:07:32;27.80;99.90
19880;DHT22;10102;50.828;4.416;2023-09-18T11:09:58;30.40;99.90
19880;DHT22;10102;50.828;4.416;2023-09-18T11:12:43;31.60;99.90
19880;DHT22;10102;50.828;4.416;2023-09-18T11:15:25;33.60;99.90
19880;DHT22;10102;50.828;4.416;2023-09-18T11:17:59;33.30;99.90
19880;DHT22;10102;50.828;4.416;2023-09-18T11:20:28;33.40;99.90
19880;DHT22;10102;50.828;4.416;2023-09-18T11:22:58;32.60;99.90
19880;DHT22;10102;50.828;4.416;2023-09-18T11:30:54;31.90;99.90
19880;DHT22;10102;50.828;4.416;2023-09-18T11:33:36;31.90;99.90
19880;DHT22;10102;50.828;4.416;2023-09-18T11:36:05;28.00;99.90
19880;DHT22;10102;50.828;4.416;2023-09-18T11:38:33;26.80;99.90
19880;DHT22;10102;50.828;4.416;2023-09-18T11:41:00;26.70;99.90
19880;DHT22;10102;50.828;4.416;2023-09-18T11:43:29;27.00;99.90
19880;DHT22;10102;50.828;4.416;2023-09-18T11:45:59;27.50;99.90
19880;DHT22;10102;50.828;4.416;2023-09-18T11:48:28;28.10;99.90
19880;DHT22;10102;50.828;4.416;2023-09-18T11:50:56;29.80;99.90
19880;DHT22;10102;50.828;4.416;2023-09-18T11:53:24;31.60;99.90
19880;DHT22;10102;50.828;4.416;2023-09-18T11:55:52;33.60;99.90
19880;DHT22;10102;50.828;4.416;2023-09-18T11:58:18;34.20;99.90
19880;DHT22;10102;50.828;4.416;2023-09-18T12:00:53;35.60;99.90
19880;DHT22;10102;50.828;4.416;2023-09-18T12:03:21;36.20;99.90
19880;DHT22;10102;50.828;4.416;2023-09-18T12:06:02;35.70;99.90
19880;DHT22;10102;50.828;4.416;2023-09-18T12:08:33;35.60;99.90
19880;DHT22;10102;50.828;4.416;2023-09-18T12:10:59;36.50;99.90
19880;DHT22;10102;50.828;4.416;2023-09-18T12:13:25;37.20;98.40
19880;DHT22;10102;50.828;4.416;2023-09-18T12:16:02;36.90;96.90
19880;DHT22;10102;50.828;4.416;2023-09-18T12:18:33;36.40;97.00
19880;DHT22;10102;50.828;4.416;2023-09-18T12:21:06;36.40;96.90
19880;DHT22;10102;50.828;4.416;2023-09-18T12:23:42;36.40;96.30
19880;DHT22;10102;50.828;4.416;2023-09-18T12:26:11;37.60;95.20
19880;DHT22;10102;50.828;4.416;2023-09-18T12:28:41;38.50;94.70
19880;DHT22;10102;50.828;4.416;2023-09-18T12:31:14;39.40;92.50
19880;DHT22;10102;50.828;4.416;2023-09-18T12:33:42;40.00;90.90
19880;DHT22;10102;50.828;4.416;2023-09-18T12:36:18;38.70;90.90
19880;DHT22;10102;50.828;4.416;2023-09-18T12:38:55;37.40;92.00
19880;DHT22;10102;50.828;4.416;2023-09-18T12:41:23;37.30;92.40
19880;DHT22;10102;50.828;4.416;2023-09-18T12:43:49;37.70;92.00
19880;DHT22;10102;50.828;4.416;2023-09-18T12:46:15;38.00;91.50
19880;DHT22;10102;50.828;4.416;2023-09-18T12:48:41;36.70;92.00
19880;DHT22;10102;50.828;4.416;2023-09-18T12:51:12;37.00;91.70
19880;DHT22;10102;50.828;4.416;2023-09-18T12:53:39;35.70;92.20
19880;DHT22;10102;50.828;4.416;2023-09-18T12:56:10;35.50;93.70
19880;DHT22;10102;50.828;4.416;2023-09-18T12:58:39;35.60;92.30
19880;DHT22;10102;50.828;4.416;2023-09-18T13:01:10;34.70;93.30
19880;DHT22;10102;50.828;4.416;2023-09-18T13:03:46;35.30;92.70
19880;DHT22;10102;50.828;4.416;2023-09-18T13:06:17;35.40;92.90
19880;DHT22;10102;50.828;4.416;2023-09-18T13:08:43;35.90;92.00
19880;DHT22;10102;50.828;4.416;2023-09-18T13:11:09;37.30;89.20
19880;DHT22;10102;50.828;4.416;2023-09-18T13:13:37;36.60;89.50
19880;DHT22;10102;50.828;4.416;2023-09-18T13:16:08;36.10;90.50
19880;DHT22;10102;50.828;4.416;2023-09-18T13:18:37;37.10;90.00
19880;DHT22;10102;50.828;4.416;2023-09-18T13:21:10;36.30;90.40
19880;DHT22;10102;50.828;4.416;2023-09-18T13:23:39;34.10;92.00
19880;DHT22;10102;50.828;4.416;2023-09-18T13:26:06;30.30;99.90
19880;DHT22;10102;50.828;4.416;2023-09-18T13:28:36;30.10;97.50
19880;DHT22;10102;50.828;4.416;2023-09-18T13:31:03;29.20;99.20
19880;DHT22;10102;50.828;4.416;2023-09-18T13:33:33;28.00;99.90
19880;DHT22;10102;50.828;4.416;2023-09-18T13:36:03;28.10;99.90
19880;DHT22;10102;50.828;4.416;2023-09-18T13:38:29;27.10;99.90
19880;DHT22;10102;50.828;4.416;2023-09-18T13:40:55;26.90;99.90
19880;DHT22;10102;50.828;4.416;2023-09-18T13:43:21;26.70;99.90
19880;DHT22;10102;50.828;4.416;2023-09-18T13:45:49;26.70;99.90
19880;DHT22;10102;50.828;4.416;2023-09-18T13:48:18;26.50;99.90
19880;DHT22;10102;50.828;4.416;2023-09-18T13:50:44;26.70;99.90
19880;DHT22;10102;50.828;4.416;2023-09-18T13:53:10;26.50;99.90
19880;DHT22;10102;50.828;4.416;2023-09-18T13:55:36;26.60;99.90
19880;DHT22;10102;50.828;4.416;2023-09-18T13:58:03;27.00;99.90
19880;DHT22;10102;50.828;4.416;2023-09-18T14:00:29;26.40;99.90
19880;DHT22;10102;50.828;4.416;2023-09-18T14:02:55;26.70;99.90
19880;DHT22;10102;50.828;4.416;2023-09-18T14:05:21;26.70;99.90
19880;DHT22;10102;50.828;4.416;2023-09-18T14:07:47;26.60;99.90
19880;DHT22;10102;50.828;4.416;2023-09-18T14:10:13;26.20;99.90
19880;DHT22;10102;50.828;4.416;2023-09-18T14:12:40;26.30;99.90
19880;DHT22;10102;50.828;4.416;2023-09-18T14:15:07;26.00;99.90
19880;DHT22;10102;50.828;4.416;2023-09-18T14:17:37;25.70;99.90
19880;DHT22;10102;50.828;4.416;2023-09-18T14:20:04;25.70;99.90
19880;DHT22;10102;50.828;4.416;2023-09-18T14:22:36;25.70;99.90
19880;DHT22;10102;50.828;4.416;2023-09-18T14:25:03;25.80;99.90
19880;DHT22;10102;50.828;4.416;2023-09-18T14:27:31;25.70;99.90
19880;DHT22;10102;50.828;4.416;2023-09-18T14:29:57;25.50;99.90
19880;DHT22;10102;50.828;4.416;2023-09-18T14:32:23;25.40;99.90
19880;DHT22;10102;50.828;4.416;2023-09-18T14:34:50;25.30;99.90
19880;DHT22;10102;50.828;4.416;2023-09-18T14:37:16;25.30;99.90
19880;DHT22;10102;50.828;4.416;2023-09-18T14:39:41;24.90;99.90
19880;DHT22;10102;50.828;4.416;2023-09-18T14:42:09;24.20;99.90
19880;DHT22;10102;50.828;4.416;2023-09-18T14:44:35;23.30;99.90
19880;DHT22;10102;50.828;4.416;2023-09-18T14:49:27;22.10;99.90
19880;DHT22;10102;50.828;4.416;2023-09-18T14:51:53;21.50;99.90
19880;DHT22;10102;50.828;4.416;2023-09-18T14:54:20;21.10;99.90
19880;DHT22;10102;50.828;4.416;2023-09-18T14:56:46;20.90;99.90
19880;DHT22;10102;50.828;4.416;2023-09-18T14:59:12;20.80;99.90
19880;DHT22;10102;50.828;4.416;2023-09-18T15:01:38;20.90;99.90
19880;DHT22;10102;50.828;4.416;2023-09-18T15:04:04;20.80;99.90
19880;DHT22;10102;50.828;4.416;2023-09-18T15:08:56;21.20;99.90
19880;DHT22;10102;50.828;4.416;2023-09-18T15:11:22;21.30;99.90
19880;DHT22;10102;50.828;4.416;2023-09-18T15:13:49;21.30;99.90
19880;DHT22;10102;50.828;4.416;2023-09-18T15:16:14;21.50;99.90
19880;DHT22;10102;50.828;4.416;2023-09-18T15:18:40;21.40;99.90
19880;DHT22;10102;50.828;4.416;2023-09-18T15:21:07;21.80;99.90
19880;DHT22;10102;50.828;4.416;2023-09-18T15:23:33;22.20;99.90
19880;DHT22;10102;50.828;4.416;2023-09-18T15:26:00;22.60;99.90
19880;DHT22;10102;50.828;4.416;2023-09-18T15:28:27;22.30;99.90
19880;DHT22;10102;50.828;4.416;2023-09-18T15:30:54;22.90;99.90
19880;DHT22;10102;50.828;4.416;2023-09-18T15:33:21;23.30;99.90
19880;DHT22;10102;50.828;4.416;2023-09-18T15:35:51;23.50;99.90
19880;DHT22;10102;50.828;4.416;2023-09-18T15:38:18;23.10;99.90
19880;DHT22;10102;50.828;4.416;2023-09-18T15:40:44;23.10;99.90
19880;DHT22;10102;50.828;4.416;2023-09-18T15:43:10;23.10;99.90
19880;DHT22;10102;50.828;4.416;2023-09-18T15:45:35;23.10;99.90
19880;DHT22;10102;50.828;4.416;2023-09-18T15:48:04;23.30;99.90
19880;DHT22;10102;50.828;4.416;2023-09-18T15:50:33;23.30;99.90
19880;DHT22;10102;50.828;4.416;2023-09-18T15:52:59;23.60;99.90
19880;DHT22;10102;50.828;4.416;2023-09-18T15:55:25;24.50;99.90